sensor_id;sensor_type;location;lat;lon;timestamp;pressure;altitude;pressure_sealevel;temperature;humidity
37972;BME280;23794;48.234;8.344;2023-02-28T00:00:16;94605.78;;;-4.20;59.39
37972;BME280;23794;48.234;8.344;2023-02-28T00:02:44;94609.34;;;-4.25;58.88
37972;BME280;23794;48.234;8.344;2023-02-28T00:05:13;94611.31;;;-4.30;59.32
37972;BME280;23794;48.234;8.344;2023-02-28T00:07:40;94597.13;;;-4.17;59.37
37972;BME280;23794;48.234;8.344;2023-02-28T00:10:11;94599.03;;;-4.04;58.91
37972;BME280;23794;48.234;8.344;2023-02-28T00:12:38;94595.34;;;-3.94;58.49
37972;BME280;23794;48.234;8.344;2023-02-28T00:15:09;94601.78;;;-4.09;58.96
37972;BME280;23794;48.234;8.344;2023-02-28T00:17:37;94602.19;;;-4.02;58.83
37972;BME280;23794;48.234;8.344;2023-02-28T00:20:05;94590.78;;;-3.93;58.27
37972;BME280;23794;48.234;8.344;2023-02-28T00:22:34;94593.78;;;-3.95;58.63
37972;BME280;23794;48.234;8.344;2023-02-28T00:25:01;94590.50;;;-3.92;58.51
37972;BME280;23794;48.234;8.344;2023-02-28T00:27:27;94582.38;;;-3.87;58.86
37972;BME280;23794;48.234;8.344;2023-02-28T00:29:54;94584.97;;;-3.95;58.82
37972;BME280;23794;48.234;8.344;2023-02-28T00:32:21;94584.16;;;-3.96;58.77
37972;BME280;23794;48.234;8.344;2023-02-28T00:34:47;94581.34;;;-3.91;59.54
37972;BME280;23794;48.234;8.344;2023-02-28T00:37:14;94586.94;;;-3.87;59.26
37972;BME280;23794;48.234;8.344;2023-02-28T00:39:40;94591.56;;;-3.79;58.99
37972;BME280;23794;48.234;8.344;2023-02-28T00:42:07;94585.75;;;-3.95;59.04
37972;BME280;23794;48.234;8.344;2023-02-28T00:44:34;94584.84;;;-3.90;59.29
37972;BME280;23794;48.234;8.344;2023-02-28T00:47:00;94585.75;;;-3.95;58.78
37972;BME280;23794;48.234;8.344;2023-02-28T00:49:27;94594.88;;;-4.10;59.50
37972;BME280;23794;48.234;8.344;2023-02-28T00:51:55;94589.63;;;-4.15;60.12
37972;BME280;23794;48.234;8.344;2023-02-28T00:54:22;94587.03;;;-4.20;60.00
37972;BME280;23794;48.234;8.344;2023-02-28T00:56:49;94578.81;;;-4.10;59.76
37972;BME280;23794;48.234;8.344;2023-02-28T00:59:17;94569.28;;;-4.02;59.66
37972;BME280;23794;48.234;8.344;2023-02-28T01:01:46;94597.06;;;-4.12;59.68
37972;BME280;23794;48.234;8.344;2023-02-28T01:04:13;94594.56;;;-4.08;59.99
37972;BME280;23794;48.234;8.344;2023-02-28T01:06:40;94584.97;;;-4.09;59.66
37972;BME280;23794;48.234;8.344;2023-02-28T01:09:09;94577.00;;;-4.00;60.00
37972;BME280;23794;48.234;8.344;2023-02-28T01:11:37;94587.72;;;-4.00;59.41
37972;BME280;23794;48.234;8.344;2023-02-28T01:14:04;94595.66;;;-4.09;59.86
37972;BME280;23794;48.234;8.344;2023-02-28T01:16:31;94575.72;;;-4.03;59.96
37972;BME280;23794;48.234;8.344;2023-02-28T01:18:57;94589.50;;;-3.96;60.16
37972;BME280;23794;48.234;8.344;2023-02-28T01:21:24;94581.09;;;-4.03;60.01
37972;BME280;23794;48.234;8.344;2023-02-28T01:23:56;94584.38;;;-4.20;60.21
37972;BME280;23794;48.234;8.344;2023-02-28T01:26:23;94588.72;;;-4.24;60.77
37972;BME280;23794;48.234;8.344;2023-02-28T01:28:51;94582.88;;;-4.12;60.61
37972;BME280;23794;48.234;8.344;2023-02-28T01:31:18;94582.59;;;-4.11;60.84
37972;BME280;23794;48.234;8.344;2023-02-28T01:33:46;94574.06;;;-4.13;60.61
37972;BME280;23794;48.234;8.344;2023-02-28T01:36:15;94574.13;;;-4.04;60.53
37972;BME280;23794;48.234;8.344;2023-02-28T01:38:43;94573.63;;;-3.92;60.63
37972;BME280;23794;48.234;8.344;2023-02-28T01:41:15;94578.41;;;-3.89;60.17
37972;BME280;23794;48.234;8.344;2023-02-28T01:46:09;94587.44;;;-3.99;60.51
37972;BME280;23794;48.234;8.344;2023-02-28T01:48:38;94577.13;;;-3.92;60.10
37972;BME280;23794;48.234;8.344;2023-02-28T01:51:12;94580.19;;;-3.84;60.19
37972;BME280;23794;48.234;8.344;2023-02-28T01:53:46;94587.13;;;-3.83;60.30
37972;BME280;23794;48.234;8.344;2023-02-28T01:56:18;94580.97;;;-3.98;60.56
37972;BME280;23794;48.234;8.344;2023-02-28T01:58:50;94574.75;;;-4.07;60.96
37972;BME280;23794;48.234;8.344;2023-02-28T02:01:18;94567.19;;;-4.05;60.96
37972;BME280;23794;48.234;8.344;2023-02-28T02:03:52;94570.19;;;-4.07;61.00
37972;BME280;23794;48.234;8.344;2023-02-28T02:06:35;94571.00;;;-4.06;61.41
37972;BME280;23794;48.234;8.344;2023-02-28T02:09:05;94569.88;;;-4.05;61.58
37972;BME280;23794;48.234;8.344;2023-02-28T02:11:33;94567.91;;;-4.13;61.68
37972;BME280;23794;48.234;8.344;2023-02-28T02:17:03;94560.88;;;-3.95;61.42
37972;BME280;23794;48.234;8.344;2023-02-28T02:19:53;94563.56;;;-4.09;61.51
37972;BME280;23794;48.234;8.344;2023-02-28T02:25:44;94568.22;;;-4.15;61.89
37972;BME280;23794;48.234;8.344;2023-02-28T02:31:23;94566.53;;;-4.25;62.14
37972;BME280;23794;48.234;8.344;2023-02-28T02:34:24;94576.84;;;-4.18;62.31
37972;BME280;23794;48.234;8.344;2023-02-28T02:40:32;94569.91;;;-4.33;62.56
37972;BME280;23794;48.234;8.344;2023-02-28T02:45:40;94570.69;;;-4.19;62.36
37972;BME280;23794;48.234;8.344;2023-02-28T02:48:13;94559.28;;;-4.10;62.16
37972;BME280;23794;48.234;8.344;2023-02-28T02:50:53;94562.53;;;-3.99;61.62
37972;BME280;23794;48.234;8.344;2023-02-28T02:53:27;94569.22;;;-4.11;61.66
37972;BME280;23794;48.234;8.344;2023-02-28T02:55:56;94571.56;;;-4.23;62.74
37972;BME280;23794;48.234;8.344;2023-02-28T02:58:29;94569.72;;;-4.23;63.12
37972;BME280;23794;48.234;8.344;2023-02-28T03:00:59;94562.34;;;-4.17;62.93
37972;BME280;23794;48.234;8.344;2023-02-28T03:03:27;94566.16;;;-4.18;62.61
37972;BME280;23794;48.234;8.344;2023-02-28T03:06:00;94565.56;;;-4.29;63.14
37972;BME280;23794;48.234;8.344;2023-02-28T03:08:29;94568.41;;;-4.39;63.72
37972;BME280;23794;48.234;8.344;2023-02-28T03:11:02;94560.38;;;-4.39;63.42
37972;BME280;23794;48.234;8.344;2023-02-28T03:16:33;94564.44;;;-4.42;63.70
37972;BME280;23794;48.234;8.344;2023-02-28T03:28:00;94561.59;;;-4.45;64.47
37972;BME280;23794;48.234;8.344;2023-02-28T03:30:37;94547.09;;;-4.72;64.93
37972;BME280;23794;48.234;8.344;2023-02-28T03:33:10;94554.53;;;-4.55;65.32
37972;BME280;23794;48.234;8.344;2023-02-28T03:35:42;94550.47;;;-4.39;65.26
37972;BME280;23794;48.234;8.344;2023-02-28T03:38:21;94555.25;;;-4.36;65.72
37972;BME280;23794;48.234;8.344;2023-02-28T03:41:00;94543.75;;;-4.50;65.70
37972;BME280;23794;48.234;8.344;2023-02-28T03:43:33;94557.16;;;-4.83;66.58
37972;BME280;23794;48.234;8.344;2023-02-28T03:46:05;94555.66;;;-4.89;67.17
37972;BME280;23794;48.234;8.344;2023-02-28T03:49:16;94554.22;;;-4.82;68.41
37972;BME280;23794;48.234;8.344;2023-02-28T03:51:46;94564.72;;;-4.71;67.71
37972;BME280;23794;48.234;8.344;2023-02-28T03:54:16;94560.94;;;-4.70;67.21
37972;BME280;23794;48.234;8.344;2023-02-28T03:56:50;94565.19;;;-4.83;68.10
37972;BME280;23794;48.234;8.344;2023-02-28T03:59:25;94565.47;;;-4.85;68.08
37972;BME280;23794;48.234;8.344;2023-02-28T04:01:53;94572.00;;;-4.91;68.30
37972;BME280;23794;48.234;8.344;2023-02-28T04:04:21;94567.44;;;-4.90;69.18
37972;BME280;23794;48.234;8.344;2023-02-28T04:06:50;94571.28;;;-4.96;69.20
37972;BME280;23794;48.234;8.344;2023-02-28T04:09:17;94559.53;;;-4.95;69.30
37972;BME280;23794;48.234;8.344;2023-02-28T04:11:49;94563.38;;;-5.02;68.70
37972;BME280;23794;48.234;8.344;2023-02-28T04:14:18;94570.00;;;-4.99;68.94
37972;BME280;23794;48.234;8.344;2023-02-28T04:16:45;94575.25;;;-4.94;69.87
37972;BME280;23794;48.234;8.344;2023-02-28T04:19:12;94567.84;;;-4.97;69.68
37972;BME280;23794;48.234;8.344;2023-02-28T04:21:44;94555.97;;;-4.91;69.61
37972;BME280;23794;48.234;8.344;2023-02-28T04:24:14;94568.56;;;-4.77;69.64
37972;BME280;23794;48.234;8.344;2023-02-28T04:26:44;94576.13;;;-4.66;69.23
37972;BME280;23794;48.234;8.344;2023-02-28T04:29:14;94566.50;;;-4.67;69.63
37972;BME280;23794;48.234;8.344;2023-02-28T04:31:40;94562.31;;;-4.87;68.86
37972;BME280;23794;48.234;8.344;2023-02-28T04:34:07;94568.94;;;-4.98;70.05
37972;BME280;23794;48.234;8.344;2023-02-28T04:36:34;94569.19;;;-5.00;70.89
37972;BME280;23794;48.234;8.344;2023-02-28T04:39:00;94569.09;;;-5.08;69.44
37972;BME280;23794;48.234;8.344;2023-02-28T04:41:27;94566.91;;;-5.06;69.86
37972;BME280;23794;48.234;8.344;2023-02-28T04:43:57;94558.25;;;-4.98;70.44
37972;BME280;23794;48.234;8.344;2023-02-28T04:46:24;94571.91;;;-4.86;70.63
37972;BME280;23794;48.234;8.344;2023-02-28T04:48:51;94573.53;;;-4.71;70.29
37972;BME280;23794;48.234;8.344;2023-02-28T04:51:18;94566.19;;;-4.65;69.03
37972;BME280;23794;48.234;8.344;2023-02-28T04:53:45;94579.38;;;-4.69;69.13
37972;BME280;23794;48.234;8.344;2023-02-28T04:56:14;94576.06;;;-4.93;69.33
37972;BME280;23794;48.234;8.344;2023-02-28T04:58:41;94578.34;;;-4.87;69.45
37972;BME280;23794;48.234;8.344;2023-02-28T05:01:22;94580.84;;;-4.76;70.01
37972;BME280;23794;48.234;8.344;2023-02-28T05:03:51;94573.66;;;-4.62;69.00
37972;BME280;23794;48.234;8.344;2023-02-28T05:06:18;94579.78;;;-4.75;68.35
37972;BME280;23794;48.234;8.344;2023-02-28T05:08:46;94571.19;;;-4.91;69.28
37972;BME280;23794;48.234;8.344;2023-02-28T05:11:22;94576.13;;;-4.99;70.28
37972;BME280;23794;48.234;8.344;2023-02-28T05:13:51;94577.16;;;-4.94;70.33
37972;BME280;23794;48.234;8.344;2023-02-28T05:16:19;94581.13;;;-4.92;70.56
37972;BME280;23794;48.234;8.344;2023-02-28T05:18:46;94572.59;;;-4.94;70.52
37972;BME280;23794;48.234;8.344;2023-02-28T05:21:34;94572.69;;;-4.99;70.55
37972;BME280;23794;48.234;8.344;2023-02-28T05:24:05;94565.66;;;-4.95;71.39
37972;BME280;23794;48.234;8.344;2023-02-28T05:26:38;94574.97;;;-4.92;71.38
37972;BME280;23794;48.234;8.344;2023-02-28T05:29:04;94576.63;;;-4.96;71.11
37972;BME280;23794;48.234;8.344;2023-02-28T05:31:31;94575.75;;;-4.92;70.66
37972;BME280;23794;48.234;8.344;2023-02-28T05:33:58;94576.53;;;-5.05;71.54
37972;BME280;23794;48.234;8.344;2023-02-28T05:36:25;94581.66;;;-5.09;71.14
37972;BME280;23794;48.234;8.344;2023-02-28T05:38:52;94582.34;;;-5.03;71.24
37972;BME280;23794;48.234;8.344;2023-02-28T05:41:19;94581.56;;;-5.04;71.27
37972;BME280;23794;48.234;8.344;2023-02-28T05:43:47;94587.44;;;-5.02;70.87
37972;BME280;23794;48.234;8.344;2023-02-28T05:46:14;94591.09;;;-4.98;71.05
37972;BME280;23794;48.234;8.344;2023-02-28T05:48:42;94582.53;;;-5.14;71.46
37972;BME280;23794;48.234;8.344;2023-02-28T05:51:09;94590.75;;;-5.10;72.26
37972;BME280;23794;48.234;8.344;2023-02-28T05:53:36;94586.34;;;-5.01;72.23
37972;BME280;23794;48.234;8.344;2023-02-28T05:56:03;94588.09;;;-5.10;71.39
37972;BME280;23794;48.234;8.344;2023-02-28T05:58:30;94593.88;;;-5.22;72.14
37972;BME280;23794;48.234;8.344;2023-02-28T06:00:58;94597.28;;;-5.16;72.28
37972;BME280;23794;48.234;8.344;2023-02-28T06:03:26;94591.72;;;-5.20;73.08
37972;BME280;23794;48.234;8.344;2023-02-28T06:05:53;94600.06;;;-5.07;72.02
37972;BME280;23794;48.234;8.344;2023-02-28T06:08:20;94586.94;;;-5.23;72.69
37972;BME280;23794;48.234;8.344;2023-02-28T06:10:47;94590.78;;;-5.29;72.26
37972;BME280;23794;48.234;8.344;2023-02-28T06:13:13;94593.66;;;-5.25;73.80
37972;BME280;23794;48.234;8.344;2023-02-28T06:15:43;94600.22;;;-5.18;72.90
37972;BME280;23794;48.234;8.344;2023-02-28T06:18:09;94602.22;;;-5.09;73.68
37972;BME280;23794;48.234;8.344;2023-02-28T06:20:36;94602.53;;;-5.11;72.67
37972;BME280;23794;48.234;8.344;2023-02-28T06:23:02;94605.13;;;-5.25;73.13
37972;BME280;23794;48.234;8.344;2023-02-28T06:25:29;94614.03;;;-5.49;73.60
37972;BME280;23794;48.234;8.344;2023-02-28T06:27:56;94615.56;;;-5.42;74.38
37972;BME280;23794;48.234;8.344;2023-02-28T06:30:23;94612.72;;;-5.32;74.12
37972;BME280;23794;48.234;8.344;2023-02-28T06:32:51;94623.25;;;-5.22;73.34
37972;BME280;23794;48.234;8.344;2023-02-28T06:35:18;94626.50;;;-5.25;73.40
37972;BME280;23794;48.234;8.344;2023-02-28T06:37:45;94626.88;;;-5.12;73.30
37972;BME280;23794;48.234;8.344;2023-02-28T06:40:13;94636.00;;;-5.00;73.73
37972;BME280;23794;48.234;8.344;2023-02-28T06:42:40;94631.34;;;-5.08;73.19
37972;BME280;23794;48.234;8.344;2023-02-28T06:45:08;94632.56;;;-5.19;73.68
37972;BME280;23794;48.234;8.344;2023-02-28T06:47:37;94637.38;;;-5.02;73.25
37972;BME280;23794;48.234;8.344;2023-02-28T06:50:05;94638.69;;;-5.00;73.29
37972;BME280;23794;48.234;8.344;2023-02-28T06:52:32;94640.91;;;-5.07;73.19
37972;BME280;23794;48.234;8.344;2023-02-28T06:54:59;94639.06;;;-5.06;73.19
37972;BME280;23794;48.234;8.344;2023-02-28T06:57:29;94634.03;;;-5.08;73.03
37972;BME280;23794;48.234;8.344;2023-02-28T07:00:02;94649.16;;;-5.41;74.33
37972;BME280;23794;48.234;8.344;2023-02-28T07:02:29;94638.22;;;-5.40;74.65
37972;BME280;23794;48.234;8.344;2023-02-28T07:04:56;94642.09;;;-5.51;75.25
37972;BME280;23794;48.234;8.344;2023-02-28T07:07:23;94650.97;;;-5.37;75.04
37972;BME280;23794;48.234;8.344;2023-02-28T07:09:50;94648.31;;;-5.37;75.00
37972;BME280;23794;48.234;8.344;2023-02-28T07:12:16;94644.56;;;-5.36;75.07
37972;BME280;23794;48.234;8.344;2023-02-28T07:14:43;94651.56;;;-5.21;74.98
37972;BME280;23794;48.234;8.344;2023-02-28T07:17:10;94658.13;;;-5.13;74.66
37972;BME280;23794;48.234;8.344;2023-02-28T07:19:39;94645.50;;;-5.07;74.46
37972;BME280;23794;48.234;8.344;2023-02-28T07:22:06;94644.97;;;-5.09;74.35
37972;BME280;23794;48.234;8.344;2023-02-28T07:24:33;94649.53;;;-5.10;74.53
37972;BME280;23794;48.234;8.344;2023-02-28T07:27:02;94649.44;;;-4.86;74.35
37972;BME280;23794;48.234;8.344;2023-02-28T07:29:28;94647.84;;;-4.87;73.82
37972;BME280;23794;48.234;8.344;2023-02-28T07:31:55;94642.88;;;-4.93;73.86
37972;BME280;23794;48.234;8.344;2023-02-28T07:34:22;94647.00;;;-5.01;74.36
37972;BME280;23794;48.234;8.344;2023-02-28T07:36:49;94648.69;;;-4.91;74.12
37972;BME280;23794;48.234;8.344;2023-02-28T07:39:20;94654.78;;;-4.86;73.81
37972;BME280;23794;48.234;8.344;2023-02-28T07:41:47;94651.66;;;-4.74;73.77
37972;BME280;23794;48.234;8.344;2023-02-28T07:44:14;94648.09;;;-4.69;73.66
37972;BME280;23794;48.234;8.344;2023-02-28T07:46:40;94655.44;;;-4.61;73.79
37972;BME280;23794;48.234;8.344;2023-02-28T07:49:07;94650.25;;;-4.71;73.27
37972;BME280;23794;48.234;8.344;2023-02-28T07:51:36;94645.31;;;-4.64;73.22
37972;BME280;23794;48.234;8.344;2023-02-28T07:54:03;94651.69;;;-4.60;73.01
37972;BME280;23794;48.234;8.344;2023-02-28T07:56:30;94653.50;;;-4.55;72.90
37972;BME280;23794;48.234;8.344;2023-02-28T07:58:57;94649.09;;;-4.65;73.39
37972;BME280;23794;48.234;8.344;2023-02-28T08:01:24;94656.56;;;-4.81;73.66
37972;BME280;23794;48.234;8.344;2023-02-28T08:03:50;94654.88;;;-4.91;74.21
37972;BME280;23794;48.234;8.344;2023-02-28T08:06:24;94651.38;;;-4.91;74.61
37972;BME280;23794;48.234;8.344;2023-02-28T08:08:52;94656.44;;;-4.90;74.52
37972;BME280;23794;48.234;8.344;2023-02-28T08:11:19;94663.75;;;-4.62;74.34
37972;BME280;23794;48.234;8.344;2023-02-28T08:13:46;94668.41;;;-4.54;73.63
37972;BME280;23794;48.234;8.344;2023-02-28T08:16:13;94667.97;;;-4.42;73.07
37972;BME280;23794;48.234;8.344;2023-02-28T08:18:44;94666.31;;;-4.24;73.13
37972;BME280;23794;48.234;8.344;2023-02-28T08:21:11;94672.88;;;-4.16;72.52
37972;BME280;23794;48.234;8.344;2023-02-28T08:23:38;94667.06;;;-4.38;72.40
37972;BME280;23794;48.234;8.344;2023-02-28T08:26:05;94666.97;;;-4.46;72.46
37972;BME280;23794;48.234;8.344;2023-02-28T08:28:32;94676.75;;;-4.56;72.63
37972;BME280;23794;48.234;8.344;2023-02-28T08:30:58;94667.97;;;-4.42;73.13
37972;BME280;23794;48.234;8.344;2023-02-28T08:33:26;94670.38;;;-4.27;72.16
37972;BME280;23794;48.234;8.344;2023-02-28T08:35:54;94674.72;;;-4.31;72.24
37972;BME280;23794;48.234;8.344;2023-02-28T08:38:22;94672.66;;;-4.20;72.49
37972;BME280;23794;48.234;8.344;2023-02-28T08:40:49;94668.41;;;-4.21;71.83
37972;BME280;23794;48.234;8.344;2023-02-28T08:43:16;94668.91;;;-4.19;72.59
37972;BME280;23794;48.234;8.344;2023-02-28T08:45:45;94671.38;;;-4.23;71.92
37972;BME280;23794;48.234;8.344;2023-02-28T08:48:12;94676.13;;;-4.33;72.16
37972;BME280;23794;48.234;8.344;2023-02-28T08:50:39;94678.22;;;-4.16;72.67
37972;BME280;23794;48.234;8.344;2023-02-28T08:53:09;94674.94;;;-4.13;71.97
37972;BME280;23794;48.234;8.344;2023-02-28T08:55:35;94680.25;;;-4.41;72.39
37972;BME280;23794;48.234;8.344;2023-02-28T08:58:02;94684.78;;;-4.56;73.21
37972;BME280;23794;48.234;8.344;2023-02-28T09:00:28;94693.59;;;-4.55;73.27
37972;BME280;23794;48.234;8.344;2023-02-28T09:02:55;94681.38;;;-4.28;72.64
37972;BME280;23794;48.234;8.344;2023-02-28T09:05:22;94686.22;;;-4.30;72.42
37972;BME280;23794;48.234;8.344;2023-02-28T09:07:49;94684.84;;;-4.14;71.98
37972;BME280;23794;48.234;8.344;2023-02-28T09:10:16;94691.91;;;-4.18;71.97
37972;BME280;23794;48.234;8.344;2023-02-28T09:12:43;94693.56;;;-4.36;72.41
37972;BME280;23794;48.234;8.344;2023-02-28T09:15:12;94694.94;;;-4.25;72.17
37972;BME280;23794;48.234;8.344;2023-02-28T09:17:39;94695.75;;;-4.10;71.73
37972;BME280;23794;48.234;8.344;2023-02-28T09:20:06;94691.22;;;-3.96;71.51
37972;BME280;23794;48.234;8.344;2023-02-28T09:22:33;94701.34;;;-3.79;70.41
37972;BME280;23794;48.234;8.344;2023-02-28T09:24:59;94697.28;;;-3.76;70.35
37972;BME280;23794;48.234;8.344;2023-02-28T09:27:26;94710.56;;;-3.85;70.34
37972;BME280;23794;48.234;8.344;2023-02-28T09:29:52;94696.78;;;-3.92;70.73
37972;BME280;23794;48.234;8.344;2023-02-28T09:32:19;94701.25;;;-3.88;71.33
37972;BME280;23794;48.234;8.344;2023-02-28T09:34:46;94701.13;;;-3.96;71.02
37972;BME280;23794;48.234;8.344;2023-02-28T09:37:12;94701.63;;;-3.94;71.09
37972;BME280;23794;48.234;8.344;2023-02-28T09:39:39;94697.88;;;-3.79;71.32
37972;BME280;23794;48.234;8.344;2023-02-28T09:42:06;94696.69;;;-3.73;70.58
37972;BME280;23794;48.234;8.344;2023-02-28T09:44:46;94702.13;;;-3.50;69.42
37972;BME280;23794;48.234;8.344;2023-02-28T09:47:31;94701.50;;;-3.33;69.77
37972;BME280;23794;48.234;8.344;2023-02-28T09:50:11;94709.19;;;-3.04;69.04
37972;BME280;23794;48.234;8.344;2023-02-28T09:52:45;94707.50;;;-3.00;68.76
37972;BME280;23794;48.234;8.344;2023-02-28T09:55:33;94712.97;;;-3.05;67.73
37972;BME280;23794;48.234;8.344;2023-02-28T09:58:22;94714.81;;;-3.42;68.53
37972;BME280;23794;48.234;8.344;2023-02-28T10:00:59;94714.03;;;-3.43;69.21
37972;BME280;23794;48.234;8.344;2023-02-28T10:03:55;94714.72;;;-3.37;69.46
37972;BME280;23794;48.234;8.344;2023-02-28T10:06:28;94722.78;;;-3.51;69.31
37972;BME280;23794;48.234;8.344;2023-02-28T10:09:10;94728.72;;;-3.40;69.12
37972;BME280;23794;48.234;8.344;2023-02-28T10:11:40;94721.34;;;-3.20;68.65
37972;BME280;23794;48.234;8.344;2023-02-28T10:14:21;94718.78;;;-3.26;68.70
37972;BME280;23794;48.234;8.344;2023-02-28T10:16:56;94718.88;;;-3.31;69.01
37972;BME280;23794;48.234;8.344;2023-02-28T10:22:24;94716.78;;;-3.20;68.58
37972;BME280;23794;48.234;8.344;2023-02-28T10:24:55;94715.53;;;-3.00;68.04
37972;BME280;23794;48.234;8.344;2023-02-28T10:27:33;94719.88;;;-3.41;68.58
37972;BME280;23794;48.234;8.344;2023-02-28T10:30:01;94714.16;;;-2.97;68.64
37972;BME280;23794;48.234;8.344;2023-02-28T10:32:34;94715.09;;;-2.79;67.49
37972;BME280;23794;48.234;8.344;2023-02-28T10:35:10;94719.97;;;-2.81;67.09
37972;BME280;23794;48.234;8.344;2023-02-28T10:37:41;94718.50;;;-2.87;66.74
37972;BME280;23794;48.234;8.344;2023-02-28T10:42:58;94722.97;;;-2.97;67.39
37972;BME280;23794;48.234;8.344;2023-02-28T10:45:27;94716.84;;;-2.97;67.27
37972;BME280;23794;48.234;8.344;2023-02-28T10:47:58;94729.41;;;-2.84;67.33
37972;BME280;23794;48.234;8.344;2023-02-28T10:50:50;94723.78;;;-2.73;66.43
37972;BME280;23794;48.234;8.344;2023-02-28T11:03:51;94726.56;;;-2.65;65.98
37972;BME280;23794;48.234;8.344;2023-02-28T11:06:21;94718.03;;;-2.67;65.44
37972;BME280;23794;48.234;8.344;2023-02-28T11:08:56;94725.22;;;-2.53;65.49
37972;BME280;23794;48.234;8.344;2023-02-28T11:11:27;94736.75;;;-2.30;65.04
37972;BME280;23794;48.234;8.344;2023-02-28T11:14:02;94733.75;;;-2.06;64.98
37972;BME280;23794;48.234;8.344;2023-02-28T11:16:36;94741.63;;;-2.55;64.88
37972;BME280;23794;48.234;8.344;2023-02-28T11:19:06;94733.91;;;-2.34;64.86
37972;BME280;23794;48.234;8.344;2023-02-28T11:21:51;94739.78;;;-2.00;63.64
37972;BME280;23794;48.234;8.344;2023-02-28T11:24:26;94740.56;;;-2.00;63.75
37972;BME280;23794;48.234;8.344;2023-02-28T11:26:54;94743.50;;;-1.87;63.33
37972;BME280;23794;48.234;8.344;2023-02-28T11:29:24;94743.56;;;-2.01;62.61
37972;BME280;23794;48.234;8.344;2023-02-28T11:34:37;94738.41;;;-1.89;64.27
37972;BME280;23794;48.234;8.344;2023-02-28T11:37:08;94750.38;;;-1.64;62.37
37972;BME280;23794;48.234;8.344;2023-02-28T11:39:37;94740.69;;;-1.73;61.94
37972;BME280;23794;48.234;8.344;2023-02-28T11:45:16;94737.03;;;-2.09;62.75
37972;BME280;23794;48.234;8.344;2023-02-28T11:47:59;94739.50;;;-1.90;62.37
37972;BME280;23794;48.234;8.344;2023-02-28T11:53:52;94742.19;;;-1.90;61.62
37972;BME280;23794;48.234;8.344;2023-02-28T12:07:18;94740.19;;;-1.75;61.14
37972;BME280;23794;48.234;8.344;2023-02-28T12:10:04;94740.94;;;-1.61;61.82
37972;BME280;23794;48.234;8.344;2023-02-28T12:12:55;94728.97;;;-1.37;62.04
37972;BME280;23794;48.234;8.344;2023-02-28T12:20:59;94738.69;;;-1.10;60.02
37972;BME280;23794;48.234;8.344;2023-02-28T12:24:07;94736.16;;;-1.06;60.06
37972;BME280;23794;48.234;8.344;2023-02-28T12:26:37;94723.84;;;-0.98;59.73
37972;BME280;23794;48.234;8.344;2023-02-28T12:29:32;94715.66;;;-0.76;58.92
37972;BME280;23794;48.234;8.344;2023-02-28T12:34:37;94717.72;;;-0.64;59.15
37972;BME280;23794;48.234;8.344;2023-02-28T12:37:09;94712.81;;;-0.53;58.19
37972;BME280;23794;48.234;8.344;2023-02-28T12:39:43;94702.81;;;-0.35;57.81
37972;BME280;23794;48.234;8.344;2023-02-28T12:42:29;94704.53;;;-0.22;57.59
37972;BME280;23794;48.234;8.344;2023-02-28T12:44:59;94707.22;;;-0.39;57.26
37972;BME280;23794;48.234;8.344;2023-02-28T12:47:27;94715.16;;;-0.69;57.07
37972;BME280;23794;48.234;8.344;2023-02-28T12:50:04;94717.34;;;-1.15;58.77
37972;BME280;23794;48.234;8.344;2023-02-28T12:52:42;94708.19;;;-1.05;58.70
37972;BME280;23794;48.234;8.344;2023-02-28T12:55:23;94704.50;;;-1.18;59.26
37972;BME280;23794;48.234;8.344;2023-02-28T13:00:25;94712.44;;;-0.95;58.01
37972;BME280;23794;48.234;8.344;2023-02-28T13:03:29;94721.13;;;-1.07;58.52
37972;BME280;23794;48.234;8.344;2023-02-28T13:11:25;94720.06;;;-0.97;58.68
37972;BME280;23794;48.234;8.344;2023-02-28T13:13:59;94723.38;;;-1.09;58.94
37972;BME280;23794;48.234;8.344;2023-02-28T13:16:27;94714.66;;;-1.06;58.63
37972;BME280;23794;48.234;8.344;2023-02-28T13:19:08;94730.13;;;-1.21;59.12
37972;BME280;23794;48.234;8.344;2023-02-28T13:21:43;94727.94;;;-1.10;59.49
37972;BME280;23794;48.234;8.344;2023-02-28T13:24:11;94727.94;;;-1.19;59.25
37972;BME280;23794;48.234;8.344;2023-02-28T13:29:43;94729.25;;;-0.90;59.02
37972;BME280;23794;48.234;8.344;2023-02-28T13:35:34;94741.19;;;-1.22;59.03
37972;BME280;23794;48.234;8.344;2023-02-28T13:37:34;94745.94;;;-1.28;59.24
37972;BME280;23794;48.234;8.344;2023-02-28T13:42:47;94735.38;;;-1.07;59.88
37972;BME280;23794;48.234;8.344;2023-02-28T13:45:24;94740.00;;;-0.81;59.09
37972;BME280;23794;48.234;8.344;2023-02-28T13:48:00;94737.97;;;-0.66;58.00
37972;BME280;23794;48.234;8.344;2023-02-28T13:50:37;94727.81;;;-0.87;58.09
37972;BME280;23794;48.234;8.344;2023-02-28T13:55:49;94733.53;;;-0.45;58.54
37972;BME280;23794;48.234;8.344;2023-02-28T14:01:36;94726.22;;;-0.35;57.35
37972;BME280;23794;48.234;8.344;2023-02-28T14:07:09;94720.41;;;-0.38;57.37
37972;BME280;23794;48.234;8.344;2023-02-28T14:09:48;94715.63;;;-0.32;57.68
37972;BME280;23794;48.234;8.344;2023-02-28T14:12:52;94712.94;;;-0.23;56.93
37972;BME280;23794;48.234;8.344;2023-02-28T14:17:57;94717.78;;;0.01;56.90
37972;BME280;23794;48.234;8.344;2023-02-28T14:20:29;94731.63;;;-0.35;57.53
37972;BME280;23794;48.234;8.344;2023-02-28T14:23:30;94727.69;;;-0.47;59.00
37972;BME280;23794;48.234;8.344;2023-02-28T14:26:02;94717.84;;;-0.34;58.93
37972;BME280;23794;48.234;8.344;2023-02-28T14:31:43;94735.56;;;-0.15;56.78
37972;BME280;23794;48.234;8.344;2023-02-28T14:34:31;94728.88;;;0.08;57.05
37972;BME280;23794;48.234;8.344;2023-02-28T14:37:03;94730.41;;;0.27;56.48
37972;BME280;23794;48.234;8.344;2023-02-28T14:39:31;94725.84;;;0.10;55.32
37972;BME280;23794;48.234;8.344;2023-02-28T14:41:59;94733.59;;;0.20;56.25
37972;BME280;23794;48.234;8.344;2023-02-28T14:44:30;94730.66;;;0.43;56.69
37972;BME280;23794;48.234;8.344;2023-02-28T14:46:59;94729.88;;;0.42;55.00
37972;BME280;23794;48.234;8.344;2023-02-28T14:49:44;94726.66;;;0.58;54.42
37972;BME280;23794;48.234;8.344;2023-02-28T14:52:19;94725.31;;;0.73;55.25
37972;BME280;23794;48.234;8.344;2023-02-28T14:54:51;94721.72;;;0.60;54.54
37972;BME280;23794;48.234;8.344;2023-02-28T14:57:25;94731.47;;;0.35;55.15
37972;BME280;23794;48.234;8.344;2023-02-28T15:00:14;94730.56;;;0.31;56.25
37972;BME280;23794;48.234;8.344;2023-02-28T15:02:41;94729.81;;;0.13;55.47
37972;BME280;23794;48.234;8.344;2023-02-28T15:07:45;94729.41;;;-0.16;56.63